sensor_id;sensor_type;location;lat;lon;timestamp;temperature;humidity
65824;SHT31;52585;47.566;19.056;2023-04-25T00:00:45;13.66;70.72
65824;SHT31;52585;47.566;19.056;2023-04-25T00:03:11;13.65;70.60
65824;SHT31;52585;47.566;19.056;2023-04-25T00:05:36;13.65;70.52
65824;SHT31;52585;47.566;19.056;2023-04-25T00:08:03;13.64;70.36
65824;SHT31;52585;47.566;19.056;2023-04-25T00:10:29;13.61;70.32
65824;SHT31;52585;47.566;19.056;2023-04-25T00:12:56;13.58;70.29
65824;SHT31;52585;47.566;19.056;2023-04-25T00:15:22;13.58;70.30
65824;SHT31;52585;47.566;19.056;2023-04-25T00:17:49;13.58;70.30
65824;SHT31;52585;47.566;19.056;2023-04-25T00:20:17;13.56;70.40
65824;SHT31;52585;47.566;19.056;2023-04-25T00:22:43;13.57;70.44
65824;SHT31;52585;47.566;19.056;2023-04-25T00:25:09;13.57;70.37
65824;SHT31;52585;47.566;19.056;2023-04-25T00:27:35;13.56;70.34
65824;SHT31;52585;47.566;19.056;2023-04-25T00:30:00;13.55;70.21
65824;SHT31;52585;47.566;19.056;2023-04-25T00:32:26;13.52;70.17
65824;SHT31;52585;47.566;19.056;2023-04-25T00:34:52;13.49;70.23
65824;SHT31;52585;47.566;19.056;2023-04-25T00:37:17;13.47;70.28
65824;SHT31;52585;47.566;19.056;2023-04-25T00:39:43;13.47;70.38
65824;SHT31;52585;47.566;19.056;2023-04-25T00:42:09;13.49;70.36
65824;SHT31;52585;47.566;19.056;2023-04-25T00:44:35;13.48;70.43
65824;SHT31;52585;47.566;19.056;2023-04-25T00:47:03;13.48;70.46
65824;SHT31;52585;47.566;19.056;2023-04-25T00:49:30;13.47;70.50
65824;SHT31;52585;47.566;19.056;2023-04-25T00:51:56;13.48;70.49
65824;SHT31;52585;47.566;19.056;2023-04-25T00:54:22;13.48;70.38
65824;SHT31;52585;47.566;19.056;2023-04-25T00:56:48;13.47;70.25
65824;SHT31;52585;47.566;19.056;2023-04-25T00:59:14;13.48;70.28
65824;SHT31;52585;47.566;19.056;2023-04-25T01:01:40;13.45;70.31
65824;SHT31;52585;47.566;19.056;2023-04-25T01:04:07;13.44;70.29
65824;SHT31;52585;47.566;19.056;2023-04-25T01:06:33;13.42;70.35
65824;SHT31;52585;47.566;19.056;2023-04-25T01:08:59;13.41;70.36
65824;SHT31;52585;47.566;19.056;2023-04-25T01:11:25;13.42;70.44
65824;SHT31;52585;47.566;19.056;2023-04-25T01:13:50;13.43;70.33
65824;SHT31;52585;47.566;19.056;2023-04-25T01:16:16;13.44;70.40
65824;SHT31;52585;47.566;19.056;2023-04-25T01:18:42;13.47;70.22
65824;SHT31;52585;47.566;19.056;2023-04-25T01:21:11;13.46;70.06
65824;SHT31;52585;47.566;19.056;2023-04-25T01:23:39;13.45;69.96
65824;SHT31;52585;47.566;19.056;2023-04-25T01:26:06;13.41;70.06
65824;SHT31;52585;47.566;19.056;2023-04-25T01:28:35;13.40;70.04
65824;SHT31;52585;47.566;19.056;2023-04-25T01:31:02;13.38;70.06
65824;SHT31;52585;47.566;19.056;2023-04-25T01:33:29;13.37;70.08
65824;SHT31;52585;47.566;19.056;2023-04-25T01:35:55;13.34;70.25
65824;SHT31;52585;47.566;19.056;2023-04-25T01:38:21;13.32;70.34
65824;SHT31;52585;47.566;19.056;2023-04-25T01:40:46;13.28;70.44
65824;SHT31;52585;47.566;19.056;2023-04-25T01:43:16;13.26;70.58
65824;SHT31;52585;47.566;19.056;2023-04-25T01:45:42;13.26;70.57
65824;SHT31;52585;47.566;19.056;2023-04-25T01:48:09;13.27;70.41
65824;SHT31;52585;47.566;19.056;2023-04-25T01:50:39;13.26;70.35
65824;SHT31;52585;47.566;19.056;2023-04-25T01:53:06;13.27;70.21
65824;SHT31;52585;47.566;19.056;2023-04-25T01:55:36;13.23;70.14
65824;SHT31;52585;47.566;19.056;2023-04-25T01:58:02;13.23;70.12
65824;SHT31;52585;47.566;19.056;2023-04-25T02:00:34;13.20;70.12
65824;SHT31;52585;47.566;19.056;2023-04-25T02:03:03;13.20;70.21
65824;SHT31;52585;47.566;19.056;2023-04-25T02:05:29;13.20;70.17
65824;SHT31;52585;47.566;19.056;2023-04-25T02:08:07;13.20;70.25
65824;SHT31;52585;47.566;19.056;2023-04-25T02:10:35;13.22;70.22
65824;SHT31;52585;47.566;19.056;2023-04-25T02:13:01;13.24;70.04
65824;SHT31;52585;47.566;19.056;2023-04-25T02:15:28;13.24;69.96
65824;SHT31;52585;47.566;19.056;2023-04-25T02:17:54;13.25;69.87
65824;SHT31;52585;47.566;19.056;2023-04-25T02:20:20;13.23;69.76
65824;SHT31;52585;47.566;19.056;2023-04-25T02:22:48;13.20;69.76
65824;SHT31;52585;47.566;19.056;2023-04-25T02:25:14;13.20;69.62
65824;SHT31;52585;47.566;19.056;2023-04-25T02:27:41;13.19;69.62
65824;SHT31;52585;47.566;19.056;2023-04-25T02:30:08;13.17;69.68
65824;SHT31;52585;47.566;19.056;2023-04-25T02:32:34;13.16;69.60
65824;SHT31;52585;47.566;19.056;2023-04-25T02:35:00;13.16;69.39
65824;SHT31;52585;47.566;19.056;2023-04-25T02:37:30;13.15;69.15
65824;SHT31;52585;47.566;19.056;2023-04-25T02:39:57;13.18;68.59
65824;SHT31;52585;47.566;19.056;2023-04-25T02:42:22;13.20;68.60
65824;SHT31;52585;47.566;19.056;2023-04-25T02:44:48;13.20;68.28
65824;SHT31;52585;47.566;19.056;2023-04-25T02:47:14;13.22;68.06
65824;SHT31;52585;47.566;19.056;2023-04-25T02:49:39;13.20;67.93
65824;SHT31;52585;47.566;19.056;2023-04-25T02:52:05;13.22;67.92
65824;SHT31;52585;47.566;19.056;2023-04-25T02:54:31;13.22;67.69
65824;SHT31;52585;47.566;19.056;2023-04-25T02:56:57;13.19;67.68
65824;SHT31;52585;47.566;19.056;2023-04-25T02:59:22;13.17;67.70
65824;SHT31;52585;47.566;19.056;2023-04-25T03:01:48;13.14;67.79
65824;SHT31;52585;47.566;19.056;2023-04-25T03:04:14;13.13;67.90
65824;SHT31;52585;47.566;19.056;2023-04-25T03:06:41;13.10;68.07
65824;SHT31;52585;47.566;19.056;2023-04-25T03:09:07;13.08;68.17
65824;SHT31;52585;47.566;19.056;2023-04-25T03:11:32;13.08;68.26
65824;SHT31;52585;47.566;19.056;2023-04-25T03:13:58;13.04;68.39
65824;SHT31;52585;47.566;19.056;2023-04-25T03:16:24;13.02;68.54
65824;SHT31;52585;47.566;19.056;2023-04-25T03:18:50;13.02;68.51
65824;SHT31;52585;47.566;19.056;2023-04-25T03:21:16;13.01;68.39
65824;SHT31;52585;47.566;19.056;2023-04-25T03:23:42;12.98;68.43
65824;SHT31;52585;47.566;19.056;2023-04-25T03:26:07;12.97;68.38
65824;SHT31;52585;47.566;19.056;2023-04-25T03:28:33;12.96;68.26
65824;SHT31;52585;47.566;19.056;2023-04-25T03:30:59;12.92;68.23
65824;SHT31;52585;47.566;19.056;2023-04-25T03:33:24;12.90;68.30
65824;SHT31;52585;47.566;19.056;2023-04-25T03:35:50;12.88;68.36
65824;SHT31;52585;47.566;19.056;2023-04-25T03:38:17;12.84;68.52
65824;SHT31;52585;47.566;19.056;2023-04-25T03:40:42;12.84;68.54
65824;SHT31;52585;47.566;19.056;2023-04-25T03:43:08;12.84;68.60
65824;SHT31;52585;47.566;19.056;2023-04-25T03:45:34;12.81;68.74
65824;SHT31;52585;47.566;19.056;2023-04-25T03:47:59;12.80;68.69
65824;SHT31;52585;47.566;19.056;2023-04-25T03:50:25;12.80;68.59
65824;SHT31;52585;47.566;19.056;2023-04-25T03:52:51;12.78;68.56
65824;SHT31;52585;47.566;19.056;2023-04-25T03:55:16;12.75;68.49
65824;SHT31;52585;47.566;19.056;2023-04-25T03:57:43;12.73;68.49
65824;SHT31;52585;47.566;19.056;2023-04-25T04:00:09;12.69;68.58
65824;SHT31;52585;47.566;19.056;2023-04-25T04:02:35;12.65;68.69
65824;SHT31;52585;47.566;19.056;2023-04-25T04:05:03;12.61;68.88
65824;SHT31;52585;47.566;19.056;2023-04-25T04:07:29;12.56;69.11
65824;SHT31;52585;47.566;19.056;2023-04-25T04:09:57;12.52;69.33
65824;SHT31;52585;47.566;19.056;2023-04-25T04:12:23;12.54;69.36
65824;SHT31;52585;47.566;19.056;2023-04-25T04:14:48;12.56;69.45
65824;SHT31;52585;47.566;19.056;2023-04-25T04:17:14;12.54;69.49
65824;SHT31;52585;47.566;19.056;2023-04-25T04:19:40;12.54;69.43
65824;SHT31;52585;47.566;19.056;2023-04-25T04:22:05;12.50;69.44
65824;SHT31;52585;47.566;19.056;2023-04-25T04:24:31;12.45;69.53
65824;SHT31;52585;47.566;19.056;2023-04-25T04:26:58;12.43;69.52
65824;SHT31;52585;47.566;19.056;2023-04-25T04:29:24;12.40;69.74
65824;SHT31;52585;47.566;19.056;2023-04-25T04:31:50;12.36;70.00
65824;SHT31;52585;47.566;19.056;2023-04-25T04:34:17;12.35;70.05
65824;SHT31;52585;47.566;19.056;2023-04-25T04:36:44;12.36;70.03
65824;SHT31;52585;47.566;19.056;2023-04-25T04:39:13;12.35;70.06
65824;SHT31;52585;47.566;19.056;2023-04-25T04:41:39;12.33;70.18
65824;SHT31;52585;47.566;19.056;2023-04-25T04:44:05;12.33;70.02
65824;SHT31;52585;47.566;19.056;2023-04-25T04:46:32;12.32;69.89
65824;SHT31;52585;47.566;19.056;2023-04-25T04:49:05;12.29;69.98
65824;SHT31;52585;47.566;19.056;2023-04-25T04:51:31;12.25;70.15
65824;SHT31;52585;47.566;19.056;2023-04-25T04:53:58;12.25;70.17
65824;SHT31;52585;47.566;19.056;2023-04-25T04:56:27;12.23;70.34
65824;SHT31;52585;47.566;19.056;2023-04-25T04:58:57;12.24;70.61
65824;SHT31;52585;47.566;19.056;2023-04-25T05:01:23;12.24;70.53
65824;SHT31;52585;47.566;19.056;2023-04-25T05:03:50;12.23;70.74
65824;SHT31;52585;47.566;19.056;2023-04-25T05:06:17;12.21;70.74
65824;SHT31;52585;47.566;19.056;2023-04-25T05:08:44;12.17;70.95
65824;SHT31;52585;47.566;19.056;2023-04-25T05:11:10;12.12;71.14
65824;SHT31;52585;47.566;19.056;2023-04-25T05:13:36;12.10;71.09
65824;SHT31;52585;47.566;19.056;2023-04-25T05:16:02;12.09;71.19
65824;SHT31;52585;47.566;19.056;2023-04-25T05:18:28;12.07;71.26
65824;SHT31;52585;47.566;19.056;2023-04-25T05:20:54;12.05;71.46
65824;SHT31;52585;47.566;19.056;2023-04-25T05:23:20;12.02;71.73
65824;SHT31;52585;47.566;19.056;2023-04-25T05:25:46;12.00;71.89
65824;SHT31;52585;47.566;19.056;2023-04-25T05:28:12;11.98;71.99
65824;SHT31;52585;47.566;19.056;2023-04-25T05:30:38;11.97;72.11
65824;SHT31;52585;47.566;19.056;2023-04-25T05:33:04;11.96;72.22
65824;SHT31;52585;47.566;19.056;2023-04-25T05:35:30;11.96;72.11
65824;SHT31;52585;47.566;19.056;2023-04-25T05:37:56;11.96;72.24
65824;SHT31;52585;47.566;19.056;2023-04-25T05:40:22;11.93;72.29
65824;SHT31;52585;47.566;19.056;2023-04-25T05:42:47;11.93;72.31
65824;SHT31;52585;47.566;19.056;2023-04-25T05:45:13;11.91;72.57
65824;SHT31;52585;47.566;19.056;2023-04-25T05:47:39;11.88;72.77
65824;SHT31;52585;47.566;19.056;2023-04-25T05:50:05;11.84;73.07
65824;SHT31;52585;47.566;19.056;2023-04-25T05:52:32;11.80;73.12
65824;SHT31;52585;47.566;19.056;2023-04-25T05:54:57;11.78;73.37
65824;SHT31;52585;47.566;19.056;2023-04-25T05:57:24;11.76;73.24
65824;SHT31;52585;47.566;19.056;2023-04-25T05:59:51;11.71;73.96
65824;SHT31;52585;47.566;19.056;2023-04-25T06:02:18;11.70;74.09
65824;SHT31;52585;47.566;19.056;2023-04-25T06:04:45;11.71;74.04
65824;SHT31;52585;47.566;19.056;2023-04-25T06:07:12;11.72;74.07
65824;SHT31;52585;47.566;19.056;2023-04-25T06:09:38;11.71;74.46
65824;SHT31;52585;47.566;19.056;2023-04-25T06:12:06;11.72;74.09
65824;SHT31;52585;47.566;19.056;2023-04-25T06:14:33;11.71;74.68
65824;SHT31;52585;47.566;19.056;2023-04-25T06:16:59;11.71;74.38
65824;SHT31;52585;47.566;19.056;2023-04-25T06:19:25;11.70;74.78
65824;SHT31;52585;47.566;19.056;2023-04-25T06:21:50;11.71;74.68
65824;SHT31;52585;47.566;19.056;2023-04-25T06:24:16;11.71;74.83
65824;SHT31;52585;47.566;19.056;2023-04-25T06:26:42;11.73;74.63
65824;SHT31;52585;47.566;19.056;2023-04-25T06:29:07;11.73;74.69
65824;SHT31;52585;47.566;19.056;2023-04-25T06:31:34;11.71;74.82
65824;SHT31;52585;47.566;19.056;2023-04-25T06:34:00;11.70;75.14
65824;SHT31;52585;47.566;19.056;2023-04-25T06:36:26;11.70;74.98
65824;SHT31;52585;47.566;19.056;2023-04-25T06:38:52;11.69;75.42
65824;SHT31;52585;47.566;19.056;2023-04-25T06:41:20;11.70;75.59
65824;SHT31;52585;47.566;19.056;2023-04-25T06:43:45;11.72;75.58
65824;SHT31;52585;47.566;19.056;2023-04-25T06:46:11;11.73;75.39
65824;SHT31;52585;47.566;19.056;2023-04-25T06:48:37;11.76;75.59
65824;SHT31;52585;47.566;19.056;2023-04-25T06:51:03;11.77;75.58
65824;SHT31;52585;47.566;19.056;2023-04-25T06:53:29;11.79;75.87
65824;SHT31;52585;47.566;19.056;2023-04-25T06:55:55;11.81;76.10
65824;SHT31;52585;47.566;19.056;2023-04-25T06:58:20;11.83;76.30
65824;SHT31;52585;47.566;19.056;2023-04-25T07:00:46;11.87;76.53
65824;SHT31;52585;47.566;19.056;2023-04-25T07:03:12;11.92;76.25
65824;SHT31;52585;47.566;19.056;2023-04-25T07:05:37;11.97;75.98
65824;SHT31;52585;47.566;19.056;2023-04-25T07:08:03;12.00;76.11
65824;SHT31;52585;47.566;19.056;2023-04-25T07:10:29;12.03;76.04
65824;SHT31;52585;47.566;19.056;2023-04-25T07:12:55;12.07;76.22
65824;SHT31;52585;47.566;19.056;2023-04-25T07:15:21;12.09;76.37
65824;SHT31;52585;47.566;19.056;2023-04-25T07:17:46;12.12;76.21
65824;SHT31;52585;47.566;19.056;2023-04-25T07:20:12;12.15;76.55
65824;SHT31;52585;47.566;19.056;2023-04-25T07:22:38;12.19;76.28
65824;SHT31;52585;47.566;19.056;2023-04-25T07:25:04;12.23;76.35
65824;SHT31;52585;47.566;19.056;2023-04-25T07:27:31;12.27;76.84
65824;SHT31;52585;47.566;19.056;2023-04-25T07:29:57;12.35;77.11
65824;SHT31;52585;47.566;19.056;2023-04-25T07:32:22;12.42;76.70
65824;SHT31;52585;47.566;19.056;2023-04-25T07:34:48;12.49;76.36
65824;SHT31;52585;47.566;19.056;2023-04-25T07:37:14;12.52;76.34
65824;SHT31;52585;47.566;19.056;2023-04-25T07:39:40;12.56;76.03
65824;SHT31;52585;47.566;19.056;2023-04-25T07:42:07;12.56;75.81
65824;SHT31;52585;47.566;19.056;2023-04-25T07:44:34;12.57;75.75
65824;SHT31;52585;47.566;19.056;2023-04-25T07:47:08;12.59;75.86
65824;SHT31;52585;47.566;19.056;2023-04-25T07:49:35;12.63;75.81
65824;SHT31;52585;47.566;19.056;2023-04-25T07:52:02;12.66;75.74
65824;SHT31;52585;47.566;19.056;2023-04-25T07:54:33;12.71;75.53
65824;SHT31;52585;47.566;19.056;2023-04-25T07:56:58;12.76;75.69
65824;SHT31;52585;47.566;19.056;2023-04-25T07:59:24;12.83;75.63
65824;SHT31;52585;47.566;19.056;2023-04-25T08:01:50;12.89;75.61
65824;SHT31;52585;47.566;19.056;2023-04-25T08:04:16;12.96;75.52
65824;SHT31;52585;47.566;19.056;2023-04-25T08:06:42;13.04;75.24
65824;SHT31;52585;47.566;19.056;2023-04-25T08:09:08;13.13;74.92
65824;SHT31;52585;47.566;19.056;2023-04-25T08:11:34;13.20;75.02
65824;SHT31;52585;47.566;19.056;2023-04-25T08:14:02;13.26;74.86
65824;SHT31;52585;47.566;19.056;2023-04-25T08:16:28;13.33;74.59
65824;SHT31;52585;47.566;19.056;2023-04-25T08:18:53;13.40;74.48
65824;SHT31;52585;47.566;19.056;2023-04-25T08:21:19;13.46;74.29
65824;SHT31;52585;47.566;19.056;2023-04-25T08:23:45;13.51;74.10
65824;SHT31;52585;47.566;19.056;2023-04-25T08:26:11;13.55;73.85
65824;SHT31;52585;47.566;19.056;2023-04-25T08:28:38;13.57;73.88
65824;SHT31;52585;47.566;19.056;2023-04-25T08:31:04;13.60;73.77
65824;SHT31;52585;47.566;19.056;2023-04-25T08:33:30;13.62;73.70
65824;SHT31;52585;47.566;19.056;2023-04-25T08:35:57;13.66;73.34
65824;SHT31;52585;47.566;19.056;2023-04-25T08:38:22;13.68;73.02
65824;SHT31;52585;47.566;19.056;2023-04-25T08:40:49;13.70;73.31
65824;SHT31;52585;47.566;19.056;2023-04-25T08:43:19;13.73;73.01
65824;SHT31;52585;47.566;19.056;2023-04-25T08:45:45;13.76;72.87
65824;SHT31;52585;47.566;19.056;2023-04-25T08:48:12;13.76;72.47
65824;SHT31;52585;47.566;19.056;2023-04-25T08:53:21;13.73;72.35
65824;SHT31;52585;47.566;19.056;2023-04-25T08:55:58;13.70;72.10
65824;SHT31;52585;47.566;19.056;2023-04-25T08:58:29;13.68;71.86
65824;SHT31;52585;47.566;19.056;2023-04-25T09:00:56;13.67;71.79
65824;SHT31;52585;47.566;19.056;2023-04-25T09:03:22;13.66;71.84
65824;SHT31;52585;47.566;19.056;2023-04-25T09:05:49;13.66;71.79
65824;SHT31;52585;47.566;19.056;2023-04-25T09:08:16;13.68;71.56
65824;SHT31;52585;47.566;19.056;2023-04-25T09:10:42;13.73;71.81
65824;SHT31;52585;47.566;19.056;2023-04-25T09:13:08;13.75;71.55
65824;SHT31;52585;47.566;19.056;2023-04-25T09:16:13;13.78;71.45
65824;SHT31;52585;47.566;19.056;2023-04-25T09:18:33;13.80;71.14
65824;SHT31;52585;47.566;19.056;2023-04-25T09:21:07;13.82;71.16
65824;SHT31;52585;47.566;19.056;2023-04-25T09:23:45;13.83;70.96
65824;SHT31;52585;47.566;19.056;2023-04-25T09:26:17;13.84;70.77
65824;SHT31;52585;47.566;19.056;2023-04-25T09:28:46;13.87;70.67
65824;SHT31;52585;47.566;19.056;2023-04-25T09:31:21;13.91;70.65
65824;SHT31;52585;47.566;19.056;2023-04-25T09:33:49;13.96;70.67
65824;SHT31;52585;47.566;19.056;2023-04-25T09:36:15;14.01;70.67
65824;SHT31;52585;47.566;19.056;2023-04-25T09:38:41;14.11;70.82
65824;SHT31;52585;47.566;19.056;2023-04-25T09:41:09;14.20;70.60
65824;SHT31;52585;47.566;19.056;2023-04-25T09:43:36;14.27;70.06
65824;SHT31;52585;47.566;19.056;2023-04-25T09:46:07;14.34;69.83
65824;SHT31;52585;47.566;19.056;2023-04-25T09:48:36;14.41;69.29
65824;SHT31;52585;47.566;19.056;2023-04-25T09:51:14;14.45;69.22
65824;SHT31;52585;47.566;19.056;2023-04-25T09:53:41;14.48;68.71
65824;SHT31;52585;47.566;19.056;2023-04-25T09:56:11;14.51;68.32
65824;SHT31;52585;47.566;19.056;2023-04-25T09:58:41;14.50;67.92
65824;SHT31;52585;47.566;19.056;2023-04-25T10:01:10;14.50;67.67
65824;SHT31;52585;47.566;19.056;2023-04-25T10:03:37;14.53;67.41
65824;SHT31;52585;47.566;19.056;2023-04-25T10:06:07;14.54;67.19
65824;SHT31;52585;47.566;19.056;2023-04-25T10:08:38;14.55;67.39
65824;SHT31;52585;47.566;19.056;2023-04-25T10:11:07;14.56;67.24
65824;SHT31;52585;47.566;19.056;2023-04-25T10:13:34;14.57;67.36
65824;SHT31;52585;47.566;19.056;2023-04-25T10:16:01;14.56;66.99
65824;SHT31;52585;47.566;19.056;2023-04-25T10:18:30;14.55;66.91
65824;SHT31;52585;47.566;19.056;2023-04-25T10:21:01;14.56;66.73
65824;SHT31;52585;47.566;19.056;2023-04-25T10:23:30;14.57;66.83
65824;SHT31;52585;47.566;19.056;2023-04-25T10:25:59;14.56;66.54
65824;SHT31;52585;47.566;19.056;2023-04-25T10:28:26;14.57;66.48
65824;SHT31;52585;47.566;19.056;2023-04-25T10:30:57;14.56;66.15
65824;SHT31;52585;47.566;19.056;2023-04-25T10:33:34;14.59;66.29
65824;SHT31;52585;47.566;19.056;2023-04-25T10:38:44;14.58;65.71
65824;SHT31;52585;47.566;19.056;2023-04-25T10:41:11;14.59;66.01
65824;SHT31;52585;47.566;19.056;2023-04-25T10:43:40;14.61;66.02
65824;SHT31;52585;47.566;19.056;2023-04-25T10:48:57;14.64;65.56
65824;SHT31;52585;47.566;19.056;2023-04-25T10:54:00;14.71;65.38
65824;SHT31;52585;47.566;19.056;2023-04-25T10:56:32;14.74;64.84
65824;SHT31;52585;47.566;19.056;2023-04-25T10:59:11;14.76;64.46
65824;SHT31;52585;47.566;19.056;2023-04-25T11:01:46;14.81;64.48
65824;SHT31;52585;47.566;19.056;2023-04-25T11:04:31;14.88;64.59
65824;SHT31;52585;47.566;19.056;2023-04-25T11:10:03;14.95;64.47
65824;SHT31;52585;47.566;19.056;2023-04-25T11:12:33;14.97;63.95
65824;SHT31;52585;47.566;19.056;2023-04-25T11:15:06;14.98;63.66
65824;SHT31;52585;47.566;19.056;2023-04-25T11:17:33;15.00;63.56
65824;SHT31;52585;47.566;19.056;2023-04-25T11:19:59;15.01;63.31
65824;SHT31;52585;47.566;19.056;2023-04-25T11:22:26;15.04;63.13
65824;SHT31;52585;47.566;19.056;2023-04-25T11:24:53;15.07;63.16
65824;SHT31;52585;47.566;19.056;2023-04-25T11:27:19;15.12;63.32
65824;SHT31;52585;47.566;19.056;2023-04-25T11:29:46;15.16;62.91
65824;SHT31;52585;47.566;19.056;2023-04-25T11:32:15;15.20;62.89
65824;SHT31;52585;47.566;19.056;2023-04-25T11:34:43;15.25;62.94
65824;SHT31;52585;47.566;19.056;2023-04-25T11:37:12;15.30;62.87
65824;SHT31;52585;47.566;19.056;2023-04-25T11:39:42;15.29;62.06
65824;SHT31;52585;47.566;19.056;2023-04-25T11:42:11;15.27;61.86
65824;SHT31;52585;47.566;19.056;2023-04-25T11:44:37;15.25;61.72
65824;SHT31;52585;47.566;19.056;2023-04-25T11:47:05;15.23;61.44
65824;SHT31;52585;47.566;19.056;2023-04-25T11:49:31;15.22;61.15
65824;SHT31;52585;47.566;19.056;2023-04-25T11:51:57;15.23;61.09
65824;SHT31;52585;47.566;19.056;2023-04-25T11:54:23;15.24;61.03
65824;SHT31;52585;47.566;19.056;2023-04-25T11:56:48;15.24;61.07
65824;SHT31;52585;47.566;19.056;2023-04-25T11:59:14;15.24;60.89
65824;SHT31;52585;47.566;19.056;2023-04-25T12:01:49;15.23;60.52
65824;SHT31;52585;47.566;19.056;2023-04-25T12:04:16;15.21;60.19
65824;SHT31;52585;47.566;19.056;2023-04-25T12:06:46;15.19;59.53
65824;SHT31;52585;47.566;19.056;2023-04-25T12:09:14;15.19;59.82
65824;SHT31;52585;47.566;19.056;2023-04-25T12:11:56;15.17;60.09
65824;SHT31;52585;47.566;19.056;2023-04-25T12:14:28;15.17;60.30
65824;SHT31;52585;47.566;19.056;2023-04-25T12:16:59;15.18;60.47
65824;SHT31;52585;47.566;19.056;2023-04-25T12:19:34;15.21;60.48
65824;SHT31;52585;47.566;19.056;2023-04-25T12:22:10;15.25;60.55
65824;SHT31;52585;47.566;19.056;2023-04-25T12:24:48;15.29;60.34
65824;SHT31;52585;47.566;19.056;2023-04-25T12:27:14;15.31;60.09
65824;SHT31;52585;47.566;19.056;2023-04-25T12:29:50;15.36;60.26
65824;SHT31;52585;47.566;19.056;2023-04-25T12:32:21;15.43;59.86
65824;SHT31;52585;47.566;19.056;2023-04-25T12:34:47;15.46;59.11
65824;SHT31;52585;47.566;19.056;2023-04-25T12:37:13;15.52;59.49
65824;SHT31;52585;47.566;19.056;2023-04-25T12:39:40;15.57;59.27
65824;SHT31;52585;47.566;19.056;2023-04-25T12:42:05;15.57;58.62
65824;SHT31;52585;47.566;19.056;2023-04-25T12:44:33;15.59;58.71
65824;SHT31;52585;47.566;19.056;2023-04-25T12:47:00;15.59;58.01
65824;SHT31;52585;47.566;19.056;2023-04-25T12:49:25;15.60;57.31
65824;SHT31;52585;47.566;19.056;2023-04-25T12:51:51;15.62;57.61
65824;SHT31;52585;47.566;19.056;2023-04-25T12:54:16;15.64;57.70
65824;SHT31;52585;47.566;19.056;2023-04-25T12:56:42;15.67;57.67
65824;SHT31;52585;47.566;19.056;2023-04-25T12:59:08;15.69;57.31
65824;SHT31;52585;47.566;19.056;2023-04-25T13:01:34;15.71;57.20
65824;SHT31;52585;47.566;19.056;2023-04-25T13:04:00;15.74;56.83
65824;SHT31;52585;47.566;19.056;2023-04-25T13:06:26;15.78;56.60
65824;SHT31;52585;47.566;19.056;2023-04-25T13:08:52;15.81;56.55
65824;SHT31;52585;47.566;19.056;2023-04-25T13:11:17;15.84;56.08
65824;SHT31;52585;47.566;19.056;2023-04-25T13:13:44;15.87;56.10
65824;SHT31;52585;47.566;19.056;2023-04-25T13:16:10;15.90;56.00
65824;SHT31;52585;47.566;19.056;2023-04-25T13:18:36;15.93;55.68
65824;SHT31;52585;47.566;19.056;2023-04-25T13:21:03;15.96;55.21
65824;SHT31;52585;47.566;19.056;2023-04-25T13:23:29;15.99;55.35
65824;SHT31;52585;47.566;19.056;2023-04-25T13:25:56;16.01;55.31
65824;SHT31;52585;47.566;19.056;2023-04-25T13:28:25;16.01;54.49
65824;SHT31;52585;47.566;19.056;2023-04-25T13:30:50;16.00;53.54
65824;SHT31;52585;47.566;19.056;2023-04-25T13:33:17;16.00;53.53
65824;SHT31;52585;47.566;19.056;2023-04-25T13:35:43;15.97;53.00
65824;SHT31;52585;47.566;19.056;2023-04-25T13:38:12;15.97;53.03
65824;SHT31;52585;47.566;19.056;2023-04-25T13:40:38;15.97;53.02
65824;SHT31;52585;47.566;19.056;2023-04-25T13:43:05;15.99;53.02
65824;SHT31;52585;47.566;19.056;2023-04-25T13:45:31;16.00;52.81
65824;SHT31;52585;47.566;19.056;2023-04-25T13:47:57;16.01;53.02
65824;SHT31;52585;47.566;19.056;2023-04-25T13:50:23;16.04;52.57
65824;SHT31;52585;47.566;19.056;2023-04-25T13:52:48;16.06;52.44
65824;SHT31;52585;47.566;19.056;2023-04-25T13:55:14;16.07;51.84
65824;SHT31;52585;47.566;19.056;2023-04-25T13:57:40;16.08;51.67
65824;SHT31;52585;47.566;19.056;2023-04-25T14:00:07;16.08;51.98
65824;SHT31;52585;47.566;19.056;2023-04-25T14:02:37;16.10;51.91
65824;SHT31;52585;47.566;19.056;2023-04-25T14:05:04;16.11;51.75
65824;SHT31;52585;47.566;19.056;2023-04-25T14:07:30;16.14;51.74
65824;SHT31;52585;47.566;19.056;2023-04-25T14:09:56;16.15;51.49
65824;SHT31;52585;47.566;19.056;2023-04-25T14:12:22;16.15;51.42
65824;SHT31;52585;47.566;19.056;2023-04-25T14:14:51;16.17;51.40
65824;SHT31;52585;47.566;19.056;2023-04-25T14:17:20;16.18;51.53
65824;SHT31;52585;47.566;19.056;2023-04-25T14:19:45;16.18;51.08
65824;SHT31;52585;47.566;19.056;2023-04-25T14:22:13;16.18;51.23
65824;SHT31;52585;47.566;19.056;2023-04-25T14:24:41;16.19;50.96
65824;SHT31;52585;47.566;19.056;2023-04-25T14:27:07;16.20;50.95
65824;SHT31;52585;47.566;19.056;2023-04-25T14:29:33;16.21;50.71
65824;SHT31;52585;47.566;19.056;2023-04-25T14:31:59;16.19;50.93
65824;SHT31;52585;47.566;19.056;2023-04-25T14:34:25;16.20;51.05
65824;SHT31;52585;47.566;19.056;2023-04-25T14:36:51;16.20;50.64
65824;SHT31;52585;47.566;19.056;2023-04-25T14:39:18;16.19;51.05
65824;SHT31;52585;47.566;19.056;2023-04-25T14:41:44;16.18;50.51
65824;SHT31;52585;47.566;19.056;2023-04-25T14:44:10;16.17;50.66
65824;SHT31;52585;47.566;19.056;2023-04-25T14:46:36;16.15;50.11
65824;SHT31;52585;47.566;19.056;2023-04-25T14:49:02;16.10;50.57
65824;SHT31;52585;47.566;19.056;2023-04-25T14:51:28;16.07;50.04
65824;SHT31;52585;47.566;19.056;2023-04-25T14:53:56;16.04;50.35
65824;SHT31;52585;47.566;19.056;2023-04-25T14:56:21;16.00;50.15
65824;SHT31;52585;47.566;19.056;2023-04-25T14:58:47;15.95;50.25
65824;SHT31;52585;47.566;19.056;2023-04-25T15:01:13;15.91;50.12
65824;SHT31;52585;47.566;19.056;2023-04-25T15:03:40;15.87;49.82
65824;SHT31;52585;47.566;19.056;2023-04-25T15:06:06;15.85;50.23
65824;SHT31;52585;47.566;19.056;2023-04-25T15:08:32;15.82;49.95
65824;SHT31;52585;47.566;19.056;2023-04-25T15:10:58;15.81;49.94
65824;SHT31;52585;47.566;19.056;2023-04-25T15:13:27;15.81;50.19
65824;SHT31;52585;47.566;19.056;2023-04-25T15:15:53;15.80;50.00
65824;SHT31;52585;47.566;19.056;2023-04-25T15:18:22;15.79;49.84
65824;SHT31;52585;47.566;19.056;2023-04-25T15:20:49;15.77;49.06
65824;SHT31;52585;47.566;19.056;2023-04-25T15:23:17;15.77;49.41
65824;SHT31;52585;47.566;19.056;2023-04-25T15:25:44;15.74;49.46
65824;SHT31;52585;47.566;19.056;2023-04-25T15:28:11;15.73;49.34